createdAt,value
2022-10-18T00:00:16.429Z,14.50
2022-10-18T00:02:45.521Z,14.40
2022-10-18T00:05:14.668Z,14.40
2022-10-18T00:07:43.664Z,14.30
2022-10-18T00:10:14.461Z,14.30
2022-10-18T00:12:43.584Z,14.30
2022-10-18T00:15:13.383Z,14.30
2022-10-18T00:17:42.551Z,14.20
2022-10-18T00:20:12.812Z,14.20
2022-10-18T00:22:42.731Z,14.20
2022-10-18T00:25:13.329Z,14.20
2022-10-18T00:27:42.327Z,14.20
2022-10-18T00:30:12.062Z,14.10
2022-10-18T00:32:42.012Z,14.10
2022-10-18T00:35:11.379Z,14.00
2022-10-18T00:37:40.462Z,13.80
2022-10-18T00:40:11.296Z,13.80
2022-10-18T00:42:41.909Z,13.70
2022-10-18T00:45:22.495Z,13.70
2022-10-18T00:47:55.322Z,13.70
2022-10-18T00:50:26.301Z,13.80
2022-10-18T00:52:59.013Z,13.80
2022-10-18T00:55:28.382Z,13.80
2022-10-18T00:57:59.502Z,13.70
2022-10-18T01:00:28.850Z,13.70
2022-10-18T01:02:59.688Z,13.70
2022-10-18T01:05:29.076Z,13.60
2022-10-18T01:08:26.431Z,13.50
2022-10-18T01:11:04.944Z,13.50
2022-10-18T01:13:44.986Z,13.60
2022-10-18T01:16:20.701Z,13.60
2022-10-18T01:18:54.567Z,13.60
2022-10-18T01:21:32.394Z,13.50
2022-10-18T01:24:55.181Z,13.60
2022-10-18T01:27:46.144Z,13.60
2022-10-18T01:30:47.732Z,13.60
2022-10-18T01:33:27.315Z,13.60
2022-10-18T01:36:01.602Z,13.50
2022-10-18T01:38:33.653Z,13.40
2022-10-18T01:41:04.832Z,13.30
2022-10-18T01:43:35.637Z,13.30
2022-10-18T01:46:06.864Z,13.40
2022-10-18T01:48:38.256Z,13.40
2022-10-18T01:51:07.454Z,13.50
2022-10-18T01:53:37.175Z,13.60
2022-10-18T01:56:21.606Z,13.50
2022-10-18T01:59:10.735Z,13.60
2022-10-18T02:01:49.654Z,13.70
2022-10-18T02:04:25.473Z,13.70
2022-10-18T02:07:00.200Z,13.80
2022-10-18T02:09:39.518Z,13.80
2022-10-18T02:12:12.064Z,13.90
2022-10-18T02:14:42.825Z,13.90
2022-10-18T02:17:14.400Z,14.00
2022-10-18T02:19:47.161Z,14.00
2022-10-18T02:22:18.024Z,14.00
2022-10-18T02:24:51.002Z,14.10
2022-10-18T02:27:20.393Z,14.10
2022-10-18T02:29:49.983Z,14.20
2022-10-18T02:32:27.434Z,14.20
2022-10-18T02:35:00.633Z,14.30
2022-10-18T02:37:34.156Z,14.30
2022-10-18T02:40:04.691Z,14.30
2022-10-18T02:42:37.235Z,14.30
2022-10-18T02:45:07.861Z,14.40
2022-10-18T02:47:38.302Z,14.40
2022-10-18T02:50:07.914Z,14.40
2022-10-18T02:52:36.958Z,14.50
2022-10-18T02:55:07.303Z,14.50
2022-10-18T02:57:36.578Z,14.50
2022-10-18T03:00:07.375Z,14.50
2022-10-18T03:02:37.858Z,14.50
2022-10-18T03:05:07.420Z,14.50
2022-10-18T03:07:36.502Z,14.50
2022-10-18T03:10:05.898Z,14.50
2022-10-18T03:12:34.989Z,14.50
2022-10-18T03:15:04.041Z,14.50
2022-10-18T03:17:33.418Z,14.60
2022-10-18T03:20:04.190Z,14.50
2022-10-18T03:22:33.341Z,14.60
2022-10-18T03:25:02.308Z,14.60
2022-10-18T03:27:31.890Z,14.50
2022-10-18T03:30:01.264Z,14.60
2022-10-18T03:32:30.514Z,14.60
2022-10-18T03:34:59.690Z,14.50
2022-10-18T03:37:30.259Z,14.50
2022-10-18T03:39:59.287Z,14.60
2022-10-18T03:42:28.489Z,14.60
2022-10-18T03:44:57.702Z,14.60
2022-10-18T03:47:26.974Z,14.60
2022-10-18T03:49:57.252Z,14.60
2022-10-18T03:52:26.571Z,14.60
2022-10-18T03:54:57.030Z,14.60
2022-10-18T03:57:26.200Z,14.60
2022-10-18T03:59:55.181Z,14.60
2022-10-18T04:02:24.183Z,14.60
2022-10-18T04:04:53.547Z,14.60
2022-10-18T04:07:22.558Z,14.60
2022-10-18T04:09:51.577Z,14.60
2022-10-18T04:12:22.100Z,14.60
2022-10-18T04:14:51.144Z,14.60
2022-10-18T04:17:20.243Z,14.60
2022-10-18T04:19:49.669Z,14.60
2022-10-18T04:22:18.745Z,14.60
2022-10-18T04:24:47.865Z,14.60
2022-10-18T04:27:16.981Z,14.60
2022-10-18T04:29:47.593Z,14.60
2022-10-18T04:32:16.590Z,14.60
2022-10-18T04:34:45.772Z,14.70
2022-10-18T04:37:14.781Z,14.70
2022-10-18T04:39:49.915Z,14.70
2022-10-18T04:42:22.279Z,14.70
2022-10-18T04:44:52.939Z,14.80
2022-10-18T04:47:22.190Z,14.70
2022-10-18T04:49:51.230Z,14.70
2022-10-18T04:52:20.476Z,14.70
2022-10-18T04:54:49.682Z,14.80
2022-10-18T04:57:18.871Z,14.80
2022-10-18T04:59:48.033Z,14.80
2022-10-18T05:02:18.751Z,14.80
2022-10-18T05:04:47.912Z,14.80
2022-10-18T05:07:17.472Z,14.90
2022-10-18T05:09:46.751Z,14.90
2022-10-18T05:12:16.177Z,14.90
2022-10-18T05:14:45.562Z,14.90
2022-10-18T05:17:14.702Z,15.00
2022-10-18T05:19:45.311Z,15.00
2022-10-18T05:22:14.491Z,15.00
2022-10-18T05:24:43.722Z,15.00
2022-10-18T05:27:12.985Z,15.10
2022-10-18T05:29:42.187Z,15.10
2022-10-18T05:32:11.442Z,15.20
2022-10-18T05:34:40.832Z,15.20
2022-10-18T05:37:11.583Z,15.30
2022-10-18T05:39:40.782Z,15.40
2022-10-18T05:42:10.111Z,15.40
2022-10-18T05:44:39.342Z,15.50
2022-10-18T05:47:08.654Z,15.60
2022-10-18T05:49:38.022Z,15.70
2022-10-18T05:52:08.352Z,15.80
2022-10-18T05:54:39.237Z,15.80
2022-10-18T05:57:08.694Z,15.80
2022-10-18T05:59:37.938Z,15.90
2022-10-18T06:02:07.249Z,16.00
2022-10-18T06:04:37.331Z,16.20
2022-10-18T06:07:11.573Z,16.30
2022-10-18T06:09:42.651Z,16.50
2022-10-18T06:12:11.951Z,16.70
2022-10-18T06:14:41.149Z,17.10
2022-10-18T06:17:10.461Z,17.40
2022-10-18T06:19:39.732Z,17.90
2022-10-18T06:22:09.130Z,18.40
2022-10-18T06:24:38.628Z,18.90
2022-10-18T06:27:09.803Z,19.20
2022-10-18T06:29:39.709Z,19.50
2022-10-18T06:32:09.928Z,19.70
2022-10-18T06:34:39.342Z,19.60
2022-10-18T06:37:08.769Z,19.60
2022-10-18T06:39:38.158Z,19.50
2022-10-18T06:42:11.899Z,19.50
2022-10-18T06:44:41.621Z,19.50
2022-10-18T06:47:11.592Z,19.50
2022-10-18T06:49:41.020Z,19.50
2022-10-18T06:52:10.667Z,19.40
2022-10-18T06:54:40.000Z,19.50
2022-10-18T06:57:10.766Z,19.60
2022-10-18T06:59:40.010Z,19.70
2022-10-18T07:02:09.403Z,19.80
2022-10-18T07:04:38.704Z,19.80
2022-10-18T07:07:08.053Z,19.90
2022-10-18T07:09:37.479Z,19.90
2022-10-18T07:12:07.110Z,19.90
2022-10-18T07:14:37.869Z,20.00
2022-10-18T07:17:07.079Z,20.00
2022-10-18T07:19:36.336Z,19.90
2022-10-18T07:22:05.640Z,19.80
2022-10-18T07:24:34.983Z,19.90
2022-10-18T07:27:04.418Z,20.10
2022-10-18T07:29:33.835Z,20.20
2022-10-18T07:32:04.688Z,20.20
2022-10-18T07:34:33.912Z,20.20
2022-10-18T07:37:04.029Z,20.30
2022-10-18T07:39:33.147Z,20.10
2022-10-18T07:42:02.359Z,20.00
2022-10-18T07:44:31.641Z,20.00
2022-10-18T07:47:00.761Z,20.00
2022-10-18T07:49:31.479Z,20.20
2022-10-18T07:52:00.746Z,20.10
2022-10-18T07:54:30.580Z,20.30
2022-10-18T07:57:00.144Z,20.40
2022-10-18T07:59:29.360Z,20.50
2022-10-18T08:01:58.673Z,20.50
2022-10-18T08:04:27.920Z,20.50
2022-10-18T08:06:58.479Z,20.60
2022-10-18T08:09:28.080Z,20.60
2022-10-18T08:11:57.269Z,20.70
2022-10-18T08:14:26.412Z,20.90
2022-10-18T08:16:56.910Z,20.90
2022-10-18T08:19:26.209Z,20.90
2022-10-18T08:21:55.409Z,20.90
2022-10-18T08:24:26.172Z,21.00
2022-10-18T08:26:55.430Z,21.20
2022-10-18T08:29:27.940Z,21.10
2022-10-18T08:31:58.699Z,21.20
2022-10-18T08:34:28.079Z,21.30
2022-10-18T08:36:57.321Z,21.30
2022-10-18T08:39:28.299Z,21.30
2022-10-18T08:42:22.653Z,21.30
2022-10-18T08:44:53.988Z,21.30
2022-10-18T08:47:28.291Z,21.40
2022-10-18T08:50:00.795Z,21.50
2022-10-18T08:52:35.603Z,21.80
2022-10-18T08:55:13.111Z,22.10
2022-10-18T08:57:42.440Z,22.50
2022-10-18T09:00:17.935Z,22.50
2022-10-18T09:03:05.421Z,22.50
2022-10-18T09:05:42.379Z,22.50
2022-10-18T09:08:47.089Z,22.60
2022-10-18T09:11:28.433Z,22.80
2022-10-18T09:14:22.889Z,23.20
2022-10-18T09:17:00.093Z,23.20
2022-10-18T09:19:45.037Z,23.30
2022-10-18T09:22:15.851Z,23.30
2022-10-18T09:24:53.560Z,23.50
2022-10-18T09:27:35.129Z,23.70
2022-10-18T09:30:15.163Z,23.80
2022-10-18T09:32:50.507Z,23.90
2022-10-18T09:35:24.209Z,23.90
2022-10-18T09:37:57.498Z,24.00
2022-10-18T09:40:30.576Z,24.00
2022-10-18T09:43:04.547Z,24.00
2022-10-18T09:45:38.192Z,24.10
2022-10-18T09:48:12.231Z,24.00
2022-10-18T09:50:45.516Z,23.90
2022-10-18T09:53:21.775Z,24.00
2022-10-18T09:56:00.962Z,24.10
2022-10-18T09:58:42.952Z,24.20
2022-10-18T10:01:14.873Z,24.40
2022-10-18T10:03:44.514Z,24.40
2022-10-18T10:06:19.871Z,24.40
2022-10-18T10:08:51.651Z,24.40
2022-10-18T10:11:34.170Z,24.40
2022-10-18T10:16:52.203Z,24.30
2022-10-18T10:19:28.110Z,24.30
2022-10-18T10:22:07.951Z,24.30
2022-10-18T10:24:46.964Z,24.40
2022-10-18T10:27:22.641Z,24.40
2022-10-18T10:29:58.823Z,24.30
2022-10-18T10:32:33.481Z,24.20
2022-10-18T10:35:02.799Z,24.10
2022-10-18T10:37:35.610Z,24.00
2022-10-18T10:40:28.385Z,24.00
2022-10-18T10:43:19.611Z,24.00
2022-10-18T10:46:03.905Z,24.10
2022-10-18T10:48:35.772Z,24.10
2022-10-18T10:51:09.090Z,24.30
2022-10-18T10:53:45.640Z,24.40
2022-10-18T10:56:23.881Z,24.50
2022-10-18T10:58:54.877Z,24.60
2022-10-18T11:01:30.154Z,24.50
2022-10-18T11:04:03.684Z,24.50
2022-10-18T11:06:47.833Z,24.40
2022-10-18T11:09:44.161Z,24.30
2022-10-18T11:12:35.737Z,24.40
2022-10-18T11:15:17.520Z,24.10
2022-10-18T11:18:00.988Z,24.10
2022-10-18T11:20:35.022Z,23.90
2022-10-18T11:23:08.775Z,23.90
2022-10-18T11:26:08.660Z,23.80
2022-10-18T11:28:52.188Z,24.00
2022-10-18T11:31:29.080Z,24.10
2022-10-18T11:34:18.042Z,23.90
2022-10-18T11:37:09.684Z,23.80
2022-10-18T11:39:55.658Z,23.60
2022-10-18T11:42:37.820Z,23.60
2022-10-18T11:45:23.539Z,23.70
2022-10-18T11:48:01.546Z,23.60
2022-10-18T11:50:39.437Z,23.50
2022-10-18T11:53:20.412Z,23.40
2022-10-18T11:56:04.066Z,23.40
2022-10-18T11:58:47.820Z,23.40
2022-10-18T12:01:28.816Z,23.40
2022-10-18T12:04:06.412Z,23.40
2022-10-18T12:06:40.434Z,23.50
2022-10-18T12:09:18.894Z,23.50
2022-10-18T12:11:56.002Z,23.60
2022-10-18T12:14:31.252Z,23.50
2022-10-18T12:17:39.797Z,23.40
2022-10-18T12:19:59.622Z,23.30
2022-10-18T12:22:38.447Z,23.30
2022-10-18T12:25:14.855Z,23.20
2022-10-18T12:27:50.653Z,23.20
2022-10-18T12:30:26.532Z,23.30
2022-10-18T12:33:26.570Z,23.30
2022-10-18T12:36:05.951Z,23.30
2022-10-18T12:38:39.572Z,23.10
2022-10-18T12:41:18.451Z,23.00
2022-10-18T12:43:55.175Z,22.80
2022-10-18T12:46:26.063Z,22.90
2022-10-18T12:49:07.169Z,22.80
2022-10-18T12:51:37.182Z,22.80
2022-10-18T12:54:19.024Z,22.80
2022-10-18T12:56:48.763Z,22.80
2022-10-18T12:59:52.535Z,22.80
2022-10-18T13:02:34.299Z,22.80
2022-10-18T13:05:52.842Z,22.60
2022-10-18T13:08:42.382Z,22.50
2022-10-18T13:11:44.624Z,22.40
2022-10-18T13:14:59.314Z,22.30
2022-10-18T13:17:44.122Z,22.30
2022-10-18T13:20:27.297Z,22.10
2022-10-18T13:23:10.652Z,21.90
2022-10-18T13:25:54.090Z,21.80
2022-10-18T13:28:32.643Z,21.80
2022-10-18T13:31:10.556Z,21.70
2022-10-18T13:33:42.124Z,21.60
2022-10-18T13:36:23.938Z,21.60
2022-10-18T13:39:05.136Z,21.60
2022-10-18T13:41:57.678Z,21.40
2022-10-18T13:44:32.047Z,21.30
2022-10-18T13:47:35.555Z,21.20
2022-10-18T13:50:35.015Z,21.10
2022-10-18T13:53:31.964Z,20.90
2022-10-18T13:56:25.809Z,20.80
2022-10-18T13:59:21.346Z,20.80
2022-10-18T14:02:06.543Z,20.80
2022-10-18T14:05:24.621Z,20.80
2022-10-18T14:07:59.875Z,20.80
2022-10-18T14:10:50.095Z,20.90
2022-10-18T14:13:32.666Z,20.90
2022-10-18T14:16:08.183Z,20.80
2022-10-18T14:18:44.105Z,20.70
2022-10-18T14:21:22.082Z,20.70
2022-10-18T14:23:52.915Z,20.70
2022-10-18T14:26:23.904Z,20.70
2022-10-18T14:29:06.352Z,20.70
2022-10-18T14:31:37.737Z,20.80
2022-10-18T14:34:14.253Z,20.80
2022-10-18T14:36:47.902Z,20.80
2022-10-18T14:39:22.479Z,20.80
2022-10-18T14:41:53.888Z,20.70
2022-10-18T14:44:27.377Z,20.60
2022-10-18T14:47:02.977Z,20.40
2022-10-18T14:49:33.889Z,20.30
2022-10-18T14:52:03.290Z,20.20
2022-10-18T14:54:35.377Z,20.00
2022-10-18T14:57:06.259Z,19.90
2022-10-18T14:59:41.198Z,19.80
2022-10-18T15:02:16.327Z,19.60
2022-10-18T15:04:48.558Z,19.50
2022-10-18T15:07:19.691Z,19.50
2022-10-18T15:09:49.845Z,19.40
2022-10-18T15:12:20.131Z,19.30
2022-10-18T15:14:50.202Z,19.30
2022-10-18T15:17:27.269Z,19.10
2022-10-18T15:20:05.073Z,19.00
2022-10-18T15:22:36.211Z,18.80
2022-10-18T15:25:18.183Z,18.50
2022-10-18T15:27:49.971Z,18.20
2022-10-18T15:30:25.741Z,18.00
2022-10-18T15:32:57.043Z,17.90
2022-10-18T15:35:30.613Z,17.70
2022-10-18T15:38:03.754Z,17.60
2022-10-18T15:40:38.874Z,17.40
2022-10-18T15:43:35.286Z,17.30
2022-10-18T15:46:06.885Z,17.20
2022-10-18T15:48:39.517Z,17.10
2022-10-18T15:51:18.046Z,17.00
2022-10-18T15:53:53.767Z,17.00
2022-10-18T15:56:40.041Z,16.90
2022-10-18T15:59:26.809Z,16.80
2022-10-18T16:02:01.447Z,16.90
2022-10-18T16:04:32.343Z,16.80
2022-10-18T16:07:02.843Z,16.80
2022-10-18T16:09:31.982Z,16.70
2022-10-18T16:12:01.252Z,16.60
2022-10-18T16:14:30.700Z,16.40
2022-10-18T16:17:02.091Z,16.40
2022-10-18T16:19:32.343Z,16.40
2022-10-18T16:22:06.664Z,16.40
2022-10-18T16:24:36.254Z,16.30
2022-10-18T16:27:05.672Z,16.20
2022-10-18T16:29:34.913Z,16.10
2022-10-18T16:32:04.263Z,15.90
2022-10-18T16:34:33.792Z,15.80
2022-10-18T16:37:04.355Z,15.80
2022-10-18T16:39:35.584Z,15.70
2022-10-18T16:42:05.003Z,15.60
2022-10-18T16:44:34.193Z,15.60
2022-10-18T16:47:03.514Z,15.60
2022-10-18T16:49:32.843Z,15.60
2022-10-18T16:52:03.734Z,15.50
2022-10-18T16:54:32.902Z,15.60
2022-10-18T16:57:02.140Z,15.60
2022-10-18T16:59:33.390Z,15.70
2022-10-18T17:02:05.949Z,15.80
2022-10-18T17:04:35.267Z,15.80
2022-10-18T17:07:06.334Z,15.80
2022-10-18T17:09:37.800Z,15.90
2022-10-18T17:12:08.007Z,15.90
2022-10-18T17:14:37.192Z,15.80
2022-10-18T17:17:06.940Z,15.80
2022-10-18T17:19:36.202Z,15.80
2022-10-18T17:22:07.338Z,15.70
2022-10-18T17:24:37.472Z,15.80
2022-10-18T17:27:07.062Z,15.70
2022-10-18T17:29:36.473Z,15.70
2022-10-18T17:32:06.184Z,15.70
2022-10-18T17:34:36.250Z,15.60
2022-10-18T17:37:08.314Z,15.60
2022-10-18T17:39:38.221Z,15.50
2022-10-18T17:42:07.690Z,15.20
2022-10-18T17:44:38.685Z,15.00
2022-10-18T17:47:08.217Z,14.80
2022-10-18T17:49:37.929Z,14.70
2022-10-18T17:52:09.059Z,14.70
2022-10-18T17:54:42.240Z,14.70
2022-10-18T17:57:12.115Z,14.70
2022-10-18T17:59:42.327Z,14.70
2022-10-18T18:02:12.218Z,14.80
2022-10-18T18:04:42.197Z,14.80
2022-10-18T18:07:12.985Z,14.80
2022-10-18T18:09:42.401Z,14.80
2022-10-18T18:12:11.884Z,14.80
2022-10-18T18:14:41.521Z,14.90
2022-10-18T18:17:11.394Z,14.90
2022-10-18T18:19:41.165Z,14.80
2022-10-18T18:22:12.289Z,14.70
2022-10-18T18:24:42.044Z,14.70
2022-10-18T18:27:11.759Z,14.70
2022-10-18T18:29:41.776Z,14.70
2022-10-18T18:32:11.444Z,14.80
2022-10-18T18:34:41.013Z,14.80
2022-10-18T18:37:11.759Z,14.90
2022-10-18T18:39:41.160Z,15.00
2022-10-18T18:42:11.211Z,15.00
2022-10-18T18:44:40.838Z,15.00
2022-10-18T18:47:13.244Z,15.10
2022-10-18T18:49:43.296Z,15.10
2022-10-18T18:52:14.366Z,15.10
2022-10-18T18:54:43.922Z,15.20
2022-10-18T18:57:13.397Z,15.20
2022-10-18T18:59:43.054Z,15.20
2022-10-18T19:02:12.820Z,15.20
2022-10-18T19:04:43.105Z,15.20
2022-10-18T19:07:14.342Z,15.20
2022-10-18T19:09:45.485Z,15.20
2022-10-18T19:12:19.048Z,15.10
2022-10-18T19:14:50.628Z,15.10
2022-10-18T19:17:26.019Z,15.10
2022-10-18T19:19:56.256Z,15.10
2022-10-18T19:22:28.933Z,15.10
2022-10-18T19:24:59.249Z,15.10
2022-10-18T19:27:30.074Z,15.10
2022-10-18T19:30:00.473Z,15.10
2022-10-18T19:32:30.694Z,15.10
2022-10-18T19:35:00.149Z,15.00
2022-10-18T19:37:31.991Z,15.10
2022-10-18T19:40:04.965Z,15.00
2022-10-18T19:42:34.641Z,15.10
2022-10-18T19:45:04.805Z,15.00
2022-10-18T19:47:34.836Z,15.00
2022-10-18T19:50:05.101Z,15.00
2022-10-18T19:52:38.258Z,15.00
2022-10-18T19:55:09.129Z,14.90
2022-10-18T19:57:38.762Z,14.90
2022-10-18T20:00:10.975Z,14.90
2022-10-18T20:02:44.172Z,14.80
2022-10-18T20:05:13.526Z,14.80
2022-10-18T20:07:45.637Z,14.70
2022-10-18T20:10:15.117Z,14.70
2022-10-18T20:12:44.230Z,14.80
2022-10-18T20:15:14.099Z,14.70
2022-10-18T20:17:43.320Z,14.70
2022-10-18T20:20:13.718Z,14.70
2022-10-18T20:22:44.489Z,14.60
2022-10-18T20:25:14.416Z,14.60
2022-10-18T20:27:43.777Z,14.60
2022-10-18T20:30:13.360Z,14.60
2022-10-18T20:32:43.050Z,14.60
2022-10-18T20:35:12.358Z,14.60
2022-10-18T20:37:41.729Z,14.50
2022-10-18T20:40:14.031Z,14.50
2022-10-18T20:42:44.119Z,14.40
2022-10-18T20:45:13.515Z,14.40
2022-10-18T20:47:43.036Z,14.40
2022-10-18T20:50:12.379Z,14.40
2022-10-18T20:52:41.731Z,14.40
2022-10-18T20:55:13.351Z,14.40
2022-10-18T20:57:42.946Z,14.40
2022-10-18T21:00:14.212Z,14.40
2022-10-18T21:02:44.348Z,14.40
2022-10-18T21:05:13.741Z,14.40
2022-10-18T21:07:43.160Z,14.30
2022-10-18T21:10:13.799Z,14.40
2022-10-18T21:12:43.093Z,14.40
2022-10-18T21:15:13.040Z,14.40
2022-10-18T21:17:42.128Z,14.40
2022-10-18T21:20:12.554Z,14.40
2022-10-18T21:22:41.634Z,14.40
2022-10-18T21:25:12.844Z,14.50
2022-10-18T21:27:42.129Z,14.40
2022-10-18T21:32:46.476Z,14.40
2022-10-18T21:35:15.800Z,14.40
2022-10-18T21:37:45.091Z,14.40
2022-10-18T21:40:15.673Z,14.40
2022-10-18T21:42:44.914Z,14.40
2022-10-18T21:45:13.961Z,14.40
2022-10-18T21:47:43.086Z,14.40
2022-10-18T21:50:12.422Z,14.40
2022-10-18T21:52:41.601Z,14.40
2022-10-18T21:55:11.143Z,14.40
2022-10-18T21:57:41.854Z,14.30
2022-10-18T22:00:13.351Z,14.30
2022-10-18T22:02:43.118Z,14.30
2022-10-18T22:05:12.359Z,14.30
2022-10-18T22:07:41.491Z,14.30
2022-10-18T22:10:11.120Z,14.40
2022-10-18T22:12:41.525Z,14.40
2022-10-18T22:15:11.396Z,14.40
2022-10-18T22:17:40.406Z,14.40
2022-10-18T22:20:10.785Z,14.40
2022-10-18T22:22:39.870Z,14.50
2022-10-18T22:25:09.472Z,14.50
2022-10-18T22:27:38.839Z,14.50
2022-10-18T22:30:10.958Z,14.50
2022-10-18T22:32:41.320Z,14.40
2022-10-18T22:35:10.884Z,14.50
2022-10-18T22:37:40.117Z,14.40
2022-10-18T22:40:11.095Z,14.40
2022-10-18T22:42:40.355Z,14.40
2022-10-18T22:45:11.547Z,14.40
2022-10-18T22:47:41.346Z,14.40
2022-10-18T22:50:12.892Z,14.30
2022-10-18T22:52:43.148Z,14.30
2022-10-18T22:55:12.649Z,14.30
2022-10-18T22:57:41.921Z,14.30
2022-10-18T23:00:14.229Z,14.30
2022-10-18T23:02:43.481Z,14.20
2022-10-18T23:05:12.601Z,14.20
2022-10-18T23:07:41.769Z,14.20
2022-10-18T23:10:10.960Z,14.20
2022-10-18T23:12:39.957Z,14.20
2022-10-18T23:15:10.026Z,14.20
2022-10-18T23:17:40.697Z,14.20
2022-10-18T23:20:10.666Z,14.20
2022-10-18T23:22:39.749Z,14.20
2022-10-18T23:25:09.714Z,14.20
2022-10-18T23:27:38.889Z,14.20
2022-10-18T23:30:09.388Z,14.20
2022-10-18T23:32:41.184Z,14.20
2022-10-18T23:35:10.936Z,14.20
2022-10-18T23:37:40.144Z,14.10
2022-10-18T23:40:10.823Z,14.10
2022-10-18T23:42:40.033Z,14.00
2022-10-18T23:45:10.716Z,13.90
2022-10-18T23:47:41.468Z,13.90
2022-10-18T23:50:11.326Z,13.90
2022-10-18T23:52:40.478Z,13.80
2022-10-18T23:55:10.287Z,13.80
2022-10-18T23:57:39.463Z,13.80
